CEST,Max TemperatureF,Mean TemperatureF,Min TemperatureF,Max Dew PointF,MeanDew PointF,Min DewpointF,Max Humidity, Mean Humidity, Min Humidity, Max Sea Level PressureIn, Mean Sea Level PressureIn, Min Sea Level PressureIn, Max VisibilityMiles, Mean VisibilityMiles, Min VisibilityMiles, Max Wind SpeedMPH, Mean Wind SpeedMPH, Max Gust SpeedMPH,PrecipitationIn, CloudCover, Events, WindDirDegrees
2013-3-1,53,46,39,41,38,36,100,71,51,30.12,29.97,29.83,6,6,4,7,3,,0.00,2,,16
2013-3-2,59,50,42,43,37,28,87,62,38,29.95,29.83,29.77,6,6,6,10,5,,0.00,4,,22
2013-3-3,57,47,37,45,38,32,93,75,55,30.04,30.00,29.95,6,6,6,8,4,,0.00,2,,25
2013-3-4,59,48,37,46,40,36,93,77,48,30.15,30.08,30.04,6,6,4,9,3,,0.00,1,,144
2013-3-5,57,48,39,43,38,30,93,70,38,30.15,30.08,29.95,6,6,5,10,2,,0.00,4,Rain,100
2013-3-6,60,55,50,54,45,34,94,71,39,29.92,29.75,29.65,6,4,1,32,13,52,0.00,5,Rain,146
2013-3-7,60,56,53,54,52,50,94,89,77,29.77,29.71,29.68,6,6,4,13,7,,0.00,4,Rain,165
2013-3-8,57,55,51,54,52,50,100,89,77,29.77,29.69,29.62,6,6,4,18,8,22,0.00,4,Rain,162
2013-3-9,62,55,48,52,49,43,94,80,48,29.77,29.69,29.65,6,5,2,18,7,31,0.00,3,,182
2013-3-10,60,55,50,54,49,43,94,81,52,29.68,29.62,29.50,6,5,2,20,8,32,0.00,3,Rain-Thunderstorm,179
2013-3-11,60,54,44,52,49,41,94,84,59,29.59,29.55,29.50,6,6,4,17,7,26,0.00,3,Rain-Thunderstorm,197
2013-3-12,57,50,42,54,46,41,100,91,77,29.59,29.52,29.47,6,6,4,15,7,,0.00,5,Rain-Thunderstorm,110
2013-3-13,53,47,41,50,45,41,100,95,82,29.50,29.41,29.27,6,6,4,15,4,,0.00,4,Rain,102
2013-3-14,55,47,39,48,38,32,100,78,50,29.27,29.18,29.09,6,6,3,20,6,33,0.00,3,,1
2013-3-15,51,44,37,37,30,23,87,62,37,29.83,29.51,29.27,6,6,6,14,5,,0.00,4,,2
2013-3-16,50,40,30,37,30,27,87,69,50,30.09,30.00,29.86,6,6,6,12,4,,0.00,2,,81
2013-3-17,50,44,37,45,37,32,93,73,58,30.09,29.95,29.71,6,6,6,31,9,47,0.00,6,Rain,124
2013-3-18,57,52,46,54,48,43,100,87,71,29.71,29.56,29.44,6,5,2,36,26,51,0.00,5,Rain,168
2013-3-19,55,50,44,45,43,41,93,77,62,29.77,29.73,29.65,6,6,6,14,8,,0.00,2,,221
2013-3-20,53,45,37,48,42,36,94,82,54,29.77,29.70,29.62,6,6,4,14,3,,0.00,3,Rain,142
2013-3-21,59,52,44,48,40,32,94,69,38,29.95,29.82,29.62,6,6,6,16,10,28,0.00,2,Rain,331
2013-3-22,60,48,37,50,40,30,100,76,31,29.92,29.88,29.83,6,6,6,9,3,,0.00,1,,114
2013-3-23,59,50,42,48,45,41,100,83,59,29.89,29.84,29.77,6,6,6,13,5,,0.00,2,,158
2013-3-24,69,56,42,48,42,34,100,66,30,29.74,29.56,29.42,6,6,4,20,5,31,0.00,3,,124
2013-3-25,57,52,46,54,48,41,100,87,72,29.50,29.35,29.27,6,6,2,12,4,24,0.00,5,Rain-Thunderstorm,338
2013-3-26,57,50,42,54,48,41,100,94,82,29.56,29.51,29.47,6,6,2,13,4,,0.00,4,Rain,147
2013-3-27,60,51,42,52,48,43,100,87,63,29.80,29.66,29.56,6,6,4,8,3,,0.00,3,,171
2013-3-28,59,54,50,55,51,48,100,93,82,29.86,29.82,29.77,6,6,2,17,5,,0.00,5,Rain,152
2013-3-29,62,58,53,55,53,48,100,85,72,29.86,29.81,29.74,6,6,4,17,12,,0.00,4,,169
2013-3-30,62,56,51,57,53,46,100,85,67,29.74,29.57,29.44,6,6,4,26,14,40,0.00,4,Rain,169
2013-3-31,59,54,50,54,49,46,100,86,72,29.65,29.53,29.44,6,5,2,18,9,33,0.00,3,Rain-Thunderstorm,215
2013-4-1,,,,,,,,,,,,,,,,,,,,,,